createdAt,value
2023-02-27T00:01:41.700Z,4.30
2023-02-27T00:04:08.270Z,5.28
2023-02-27T00:06:34.679Z,3.08
2023-02-27T00:09:01.139Z,3.45
2023-02-27T00:11:28.351Z,4.60
2023-02-27T00:13:55.100Z,2.97
2023-02-27T00:16:21.587Z,2.58
2023-02-27T00:18:48.032Z,4.20
2023-02-27T00:21:14.492Z,4.35
2023-02-27T00:23:40.958Z,3.15
2023-02-27T00:26:07.378Z,8.27
2023-02-27T00:28:33.852Z,2.40
2023-02-27T00:31:00.453Z,3.80
2023-02-27T00:33:26.928Z,3.15
2023-02-27T00:36:01.253Z,2.97
2023-02-27T00:38:28.489Z,2.90
2023-02-27T00:40:55.132Z,2.88
2023-02-27T00:43:21.689Z,4.65
2023-02-27T00:45:49.119Z,4.07
2023-02-27T00:48:16.168Z,3.30
2023-02-27T00:50:43.481Z,5.18
2023-02-27T00:53:10.260Z,5.82
2023-02-27T00:55:36.788Z,3.42
2023-02-27T00:58:03.355Z,6.05
2023-02-27T01:00:30.002Z,3.35
2023-02-27T01:02:56.491Z,3.22
2023-02-27T01:05:23.199Z,3.63
2023-02-27T01:07:49.666Z,4.70
2023-02-27T01:10:16.691Z,2.63
2023-02-27T01:12:44.685Z,3.58
2023-02-27T01:15:12.442Z,7.38
2023-02-27T01:17:39.555Z,3.65
2023-02-27T01:20:07.707Z,3.33
2023-02-27T01:22:34.486Z,3.60
2023-02-27T01:25:01.230Z,2.60
2023-02-27T01:27:27.919Z,4.75
2023-02-27T01:29:54.326Z,2.58
2023-02-27T01:32:20.892Z,2.72
2023-02-27T01:34:47.419Z,2.45
2023-02-27T01:37:13.879Z,3.10
2023-02-27T01:39:40.293Z,3.28
2023-02-27T01:42:18.957Z,3.58
2023-02-27T01:45:03.878Z,4.15
2023-02-27T01:47:30.338Z,2.63
2023-02-27T01:49:56.904Z,3.17
2023-02-27T01:52:23.392Z,3.95
2023-02-27T01:54:49.856Z,2.95
2023-02-27T01:57:16.276Z,6.00
2023-02-27T01:59:43.392Z,3.15
2023-02-27T02:02:19.500Z,2.97
2023-02-27T02:04:48.247Z,2.97
2023-02-27T02:07:19.030Z,5.82
2023-02-27T02:09:49.679Z,2.97
2023-02-27T02:12:18.199Z,4.15
2023-02-27T02:14:44.870Z,2.85
2023-02-27T02:17:53.476Z,2.63
2023-02-27T02:20:51.879Z,2.88
2023-02-27T02:23:36.892Z,3.83
2023-02-27T02:26:37.367Z,3.38
2023-02-27T02:29:14.471Z,3.15
2023-02-27T02:31:57.684Z,3.42
2023-02-27T02:34:42.507Z,2.97
2023-02-27T02:37:33.374Z,2.75
2023-02-27T02:40:24.401Z,3.47
2023-02-27T02:43:05.260Z,2.85
2023-02-27T02:45:59.742Z,3.45
2023-02-27T02:48:35.237Z,3.67
2023-02-27T02:51:14.232Z,3.72
2023-02-27T02:54:02.518Z,6.78
2023-02-27T02:56:41.353Z,4.03
2023-02-27T02:59:07.745Z,3.33
2023-02-27T03:01:43.642Z,3.35
2023-02-27T03:06:46.017Z,5.80
2023-02-27T03:09:27.390Z,3.67
2023-02-27T03:11:57.353Z,3.85
2023-02-27T03:14:57.186Z,3.00
2023-02-27T03:17:43.487Z,4.38
2023-02-27T03:20:19.075Z,4.60
2023-02-27T03:22:50.313Z,2.97
2023-02-27T03:25:17.190Z,3.55
2023-02-27T03:27:49.311Z,7.40
2023-02-27T03:30:39.430Z,4.18
2023-02-27T03:33:27.161Z,5.97
2023-02-27T03:36:03.225Z,3.45
2023-02-27T03:38:42.128Z,3.60
2023-02-27T03:41:16.915Z,3.25
2023-02-27T03:44:01.762Z,3.03
2023-02-27T03:46:28.879Z,4.40
2023-02-27T03:48:55.398Z,3.42
2023-02-27T03:51:24.207Z,3.10
2023-02-27T03:54:06.682Z,3.63
2023-02-27T03:56:40.729Z,4.35
2023-02-27T03:59:07.847Z,3.13
2023-02-27T04:01:34.631Z,3.45
2023-02-27T04:04:08.087Z,3.38
2023-02-27T04:06:55.374Z,3.42
2023-02-27T04:09:39.356Z,3.28
2023-02-27T04:12:33.526Z,3.17
2023-02-27T04:15:18.277Z,3.35
2023-02-27T04:17:57.932Z,3.67
2023-02-27T04:20:35.903Z,4.38
2023-02-27T04:23:11.606Z,3.13
2023-02-27T04:26:12.215Z,4.18
2023-02-27T04:28:47.264Z,3.85
2023-02-27T04:31:33.037Z,3.05
2023-02-27T04:34:10.459Z,4.30
2023-02-27T04:36:36.804Z,3.58
2023-02-27T04:39:12.481Z,3.67
2023-02-27T04:41:44.948Z,3.40
2023-02-27T04:44:12.629Z,3.42
2023-02-27T04:46:42.436Z,3.78
2023-02-27T04:49:15.153Z,3.65
2023-02-27T04:51:52.805Z,5.47
2023-02-27T04:54:26.456Z,3.10
2023-02-27T04:56:57.870Z,4.50
2023-02-27T04:59:42.655Z,3.35
2023-02-27T05:02:16.116Z,6.05
2023-02-27T05:04:45.311Z,3.33
2023-02-27T05:07:18.185Z,4.38
2023-02-27T05:10:14.222Z,5.07
2023-02-27T05:12:49.784Z,3.67
2023-02-27T05:15:38.232Z,6.97
2023-02-27T05:18:08.643Z,3.75
2023-02-27T05:20:45.284Z,5.43
2023-02-27T05:23:34.373Z,4.05
2023-02-27T05:26:16.156Z,3.13
2023-02-27T05:29:00.917Z,3.55
2023-02-27T05:31:41.500Z,3.40
2023-02-27T05:34:19.736Z,4.68
2023-02-27T05:36:53.943Z,3.25
2023-02-27T05:39:23.214Z,4.47
2023-02-27T05:42:00.407Z,3.45
2023-02-27T05:44:34.658Z,3.08
2023-02-27T05:47:07.443Z,6.03
2023-02-27T05:49:40.965Z,5.10
2023-02-27T05:52:12.009Z,4.47
2023-02-27T05:54:54.370Z,8.13
2023-02-27T05:57:27.940Z,4.32
2023-02-27T06:00:00.613Z,3.47
2023-02-27T06:02:29.230Z,6.80
2023-02-27T06:04:55.703Z,3.78
2023-02-27T06:07:23.352Z,4.57
2023-02-27T06:09:51.545Z,5.32
2023-02-27T06:12:18.838Z,5.32
2023-02-27T06:14:45.266Z,3.92
2023-02-27T06:17:11.693Z,4.20
2023-02-27T06:19:38.144Z,5.15
2023-02-27T06:22:04.704Z,3.92
2023-02-27T06:24:31.242Z,3.92
2023-02-27T06:26:57.669Z,3.80
2023-02-27T06:29:24.166Z,5.55
2023-02-27T06:31:50.662Z,4.50
2023-02-27T06:34:17.128Z,6.90
2023-02-27T06:36:43.640Z,3.97
2023-02-27T06:39:10.093Z,4.30
2023-02-27T06:41:36.798Z,4.25
2023-02-27T06:44:03.517Z,4.97
2023-02-27T06:46:30.156Z,5.25
2023-02-27T06:48:56.880Z,3.80
2023-02-27T06:51:23.444Z,5.72
2023-02-27T06:53:49.917Z,5.20
2023-02-27T06:56:16.365Z,4.57
2023-02-27T06:58:42.769Z,7.00
2023-02-27T07:01:09.917Z,5.32
2023-02-27T07:03:36.385Z,5.20
2023-02-27T07:06:03.529Z,6.78
2023-02-27T07:08:30.736Z,5.90
2023-02-27T07:10:57.618Z,7.15
2023-02-27T07:13:24.140Z,5.00
2023-02-27T07:15:50.776Z,5.00
2023-02-27T07:18:17.224Z,4.75
2023-02-27T07:20:43.776Z,5.75
2023-02-27T07:23:10.725Z,5.32
2023-02-27T07:25:37.205Z,5.43
2023-02-27T07:28:05.049Z,10.82
2023-02-27T07:30:31.539Z,5.20
2023-02-27T07:32:57.967Z,8.07
2023-02-27T07:35:24.647Z,6.60
2023-02-27T07:37:51.134Z,5.93
2023-02-27T07:40:17.927Z,7.75
2023-02-27T07:42:44.328Z,4.43
2023-02-27T07:45:11.425Z,7.00
2023-02-27T07:47:38.062Z,5.50
2023-02-27T07:50:04.871Z,4.95
2023-02-27T07:52:31.543Z,4.57
2023-02-27T07:54:58.098Z,6.00
2023-02-27T07:57:24.578Z,5.97
2023-02-27T07:59:50.978Z,5.55
2023-02-27T08:02:17.392Z,5.13
2023-02-27T08:04:43.849Z,5.75
2023-02-27T08:07:10.351Z,3.97
2023-02-27T08:09:36.778Z,4.80
2023-02-27T08:12:03.305Z,6.93
2023-02-27T08:14:29.732Z,4.80
2023-02-27T08:16:56.152Z,13.35
2023-02-27T08:19:22.579Z,6.47
2023-02-27T08:21:49.003Z,6.00
2023-02-27T08:24:15.415Z,6.15
2023-02-27T08:26:41.823Z,8.60
2023-02-27T08:29:08.264Z,5.60
2023-02-27T08:31:34.847Z,7.30
2023-02-27T08:34:09.729Z,7.43
2023-02-27T08:36:36.715Z,5.73
2023-02-27T08:39:03.302Z,6.05
2023-02-27T08:41:29.729Z,7.80
2023-02-27T08:43:56.279Z,5.35
2023-02-27T08:46:22.697Z,6.53
2023-02-27T08:48:49.106Z,4.72
2023-02-27T08:51:15.564Z,7.38
2023-02-27T08:53:42.000Z,9.40
2023-02-27T08:56:08.786Z,5.28
2023-02-27T08:58:35.861Z,5.20
2023-02-27T09:01:02.979Z,4.30
2023-02-27T09:03:29.880Z,9.95
2023-02-27T09:05:56.387Z,6.78
2023-02-27T09:08:23.132Z,5.15
2023-02-27T09:10:49.588Z,6.75
2023-02-27T09:13:16.149Z,3.90
2023-02-27T09:15:42.590Z,4.30
2023-02-27T09:18:09.197Z,4.82
2023-02-27T09:20:36.185Z,4.78
2023-02-27T09:23:03.861Z,5.00
2023-02-27T09:25:30.716Z,5.82
2023-02-27T09:27:57.287Z,3.88
2023-02-27T09:33:04.599Z,4.95
2023-02-27T09:35:31.072Z,3.67
2023-02-27T09:37:58.476Z,5.78
2023-02-27T09:40:31.789Z,4.15
2023-02-27T09:43:02.873Z,3.47
2023-02-27T09:45:31.807Z,4.40
2023-02-27T09:48:06.464Z,3.85
2023-02-27T09:50:49.347Z,8.48
2023-02-27T09:53:26.951Z,4.90
2023-02-27T09:56:00.599Z,3.42
2023-02-27T09:58:45.474Z,4.43
2023-02-27T10:01:20.710Z,6.28
2023-02-27T10:04:14.538Z,4.30
2023-02-27T10:06:48.511Z,2.83
2023-02-27T10:09:44.560Z,2.70
2023-02-27T10:12:29.210Z,2.67
2023-02-27T10:15:10.769Z,2.80
2023-02-27T10:17:42.081Z,3.50
2023-02-27T10:20:17.077Z,2.60
2023-02-27T10:22:46.356Z,2.93
2023-02-27T10:25:30.876Z,3.42
2023-02-27T10:28:08.758Z,2.70
2023-02-27T10:30:35.438Z,9.20
2023-02-27T10:33:27.874Z,5.35
2023-02-27T10:35:55.061Z,2.78
2023-02-27T10:38:40.191Z,5.22
2023-02-27T10:41:09.901Z,4.00
2023-02-27T10:43:36.422Z,3.15
2023-02-27T10:46:07.005Z,3.25
2023-02-27T10:48:33.526Z,3.53
2023-02-27T10:51:18.654Z,4.65
2023-02-27T10:53:45.139Z,4.80
2023-02-27T10:56:18.777Z,5.80
2023-02-27T10:58:45.493Z,3.92
2023-02-27T11:01:12.991Z,3.78
2023-02-27T11:03:41.854Z,3.35
2023-02-27T11:06:27.773Z,2.65
2023-02-27T11:09:22.774Z,2.85
2023-02-27T11:11:50.711Z,4.93
2023-02-27T11:14:25.137Z,3.00
2023-02-27T11:16:53.968Z,2.55
2023-02-27T11:19:44.956Z,2.05
2023-02-27T11:22:15.804Z,3.10
2023-02-27T11:24:42.402Z,3.58
2023-02-27T11:27:26.703Z,2.85
2023-02-27T11:30:02.771Z,2.78
2023-02-27T11:32:49.901Z,3.92
2023-02-27T11:35:36.392Z,9.10
2023-02-27T11:38:17.048Z,2.53
2023-02-27T11:40:51.423Z,2.42
2023-02-27T11:43:31.040Z,3.53
2023-02-27T11:46:13.250Z,2.47
2023-02-27T11:48:48.220Z,3.53
2023-02-27T11:51:30.893Z,3.38
2023-02-27T11:54:00.043Z,2.42
2023-02-27T11:56:47.337Z,2.88
2023-02-27T11:59:19.870Z,3.50
2023-02-27T12:02:10.342Z,3.17
2023-02-27T12:04:52.276Z,4.70
2023-02-27T12:07:24.651Z,2.05
2023-02-27T12:10:02.644Z,2.55
2023-02-27T12:12:36.233Z,3.70
2023-02-27T12:15:15.045Z,2.95
2023-02-27T12:17:50.155Z,2.47
2023-02-27T12:20:25.570Z,2.80
2023-02-27T12:22:54.216Z,2.70
2023-02-27T12:25:33.888Z,1.70
2023-02-27T12:28:08.646Z,2.08
2023-02-27T13:06:54.397Z,2.85
2023-02-27T13:09:25.686Z,3.92
2023-02-27T13:12:07.494Z,3.13
2023-02-27T13:14:54.960Z,2.85
2023-02-27T13:17:44.093Z,4.50
2023-02-27T13:20:26.838Z,2.83
2023-02-27T13:22:58.451Z,6.50
2023-02-27T13:25:25.883Z,2.20
2023-02-27T13:35:54.038Z,4.65
2023-02-27T13:38:43.559Z,3.67
2023-02-27T13:41:25.073Z,3.83
2023-02-27T13:43:55.503Z,2.28
2023-02-27T13:46:31.579Z,2.28
2023-02-27T13:49:04.128Z,1.83
2023-02-27T13:51:41.088Z,3.17
2023-02-27T13:54:13.739Z,2.80
2023-02-27T13:56:49.182Z,3.40
2023-02-27T13:59:23.778Z,2.88
2023-02-27T14:01:58.448Z,3.40
2023-02-27T14:04:27.727Z,2.20
2023-02-27T14:07:03.319Z,3.55
2023-02-27T14:09:36.091Z,2.85
2023-02-27T14:14:46.688Z,1.77
2023-02-27T14:17:35.133Z,1.50
2023-02-27T14:20:11.979Z,3.25
2023-02-27T14:22:44.015Z,2.70
2023-02-27T14:25:19.137Z,2.88
2023-02-27T14:27:52.822Z,2.67
2023-02-27T14:33:39.128Z,4.45
2023-02-27T14:36:09.518Z,3.50
2023-02-27T14:38:38.277Z,3.00
2023-02-27T14:41:14.402Z,3.30
2023-02-27T14:43:55.019Z,2.47
2023-02-27T14:46:42.314Z,2.80
2023-02-27T14:51:44.935Z,3.63
2023-02-27T14:54:28.202Z,2.38
2023-02-27T14:57:00.856Z,3.40
2023-02-27T14:59:34.193Z,2.30
2023-02-27T15:02:04.157Z,2.78
2023-02-27T15:04:35.256Z,3.22
2023-02-27T15:07:03.892Z,4.00
2023-02-27T15:09:44.756Z,1.55
2023-02-27T15:12:20.008Z,3.47
2023-02-27T15:14:52.245Z,2.67
2023-02-27T15:17:24.846Z,3.85
2023-02-27T15:19:56.438Z,2.70
2023-02-27T15:22:39.459Z,2.45
2023-02-27T15:25:29.166Z,5.03
2023-02-27T15:28:05.312Z,2.13
2023-02-27T15:30:32.793Z,2.90
2023-02-27T15:33:10.344Z,2.38
2023-02-27T15:35:41.884Z,4.13
2023-02-27T15:38:27.290Z,2.97
2023-02-27T15:40:54.352Z,3.58
2023-02-27T15:43:22.878Z,2.45
2023-02-27T15:45:50.822Z,2.70
2023-02-27T15:48:20.856Z,1.67
2023-02-27T15:50:57.552Z,2.10
2023-02-27T15:53:26.629Z,3.78
2023-02-27T15:55:56.455Z,1.60
2023-02-27T15:58:31.353Z,3.63
2023-02-27T16:01:03.252Z,2.30
2023-02-27T16:03:37.190Z,3.15
2023-02-27T16:06:12.435Z,3.13
2023-02-27T16:08:46.240Z,2.10
2023-02-27T16:11:31.537Z,3.60
2023-02-27T16:13:58.278Z,2.80
2023-02-27T16:16:35.884Z,1.50
2023-02-27T16:19:16.495Z,3.13
2023-02-27T16:22:03.591Z,3.08
2023-02-27T16:24:31.826Z,2.88
2023-02-27T16:26:58.355Z,5.32
2023-02-27T16:29:44.239Z,4.47
2023-02-27T16:32:42.259Z,3.78
2023-02-27T16:35:20.695Z,2.97
2023-02-27T16:37:49.338Z,2.00
2023-02-27T16:40:17.697Z,3.25
2023-02-27T16:42:45.652Z,2.55
2023-02-27T16:45:16.596Z,2.42
2023-02-27T16:47:48.972Z,2.90
2023-02-27T16:50:22.029Z,4.88
2023-02-27T16:52:48.558Z,6.13
2023-02-27T16:55:15.120Z,5.40
2023-02-27T16:57:41.662Z,4.47
2023-02-27T17:00:13.226Z,4.93
2023-02-27T17:02:39.735Z,4.10
2023-02-27T17:05:06.884Z,2.97
2023-02-27T17:07:33.476Z,4.70
2023-02-27T17:10:00.398Z,3.67
2023-02-27T17:12:27.314Z,3.95
2023-02-27T17:14:53.936Z,5.05
2023-02-27T17:17:20.491Z,4.47
2023-02-27T17:19:46.978Z,2.80
2023-02-27T17:22:15.081Z,2.80
2023-02-27T17:24:41.623Z,3.45
2023-02-27T17:27:09.304Z,2.25
2023-02-27T17:29:38.301Z,3.85
2023-02-27T17:32:05.659Z,4.45
2023-02-27T17:34:32.151Z,4.18
2023-02-27T17:36:58.766Z,3.10
2023-02-27T17:39:25.217Z,4.70
2023-02-27T17:41:53.005Z,4.68
2023-02-27T17:44:19.619Z,4.43
2023-02-27T17:46:46.086Z,5.15
2023-02-27T17:49:12.545Z,4.63
2023-02-27T17:51:42.031Z,4.13
2023-02-27T17:54:08.665Z,3.55
2023-02-27T17:56:36.880Z,4.00
2023-02-27T17:59:04.060Z,4.00
2023-02-27T18:01:30.531Z,4.78
2023-02-27T18:03:57.005Z,7.82
2023-02-27T18:06:24.311Z,2.88
2023-02-27T18:08:51.196Z,3.55
2023-02-27T18:11:19.649Z,6.07
2023-02-27T18:13:46.878Z,8.05
2023-02-27T18:16:14.040Z,5.85
2023-02-27T18:18:42.264Z,8.13
2023-02-27T18:21:14.480Z,5.38
2023-02-27T18:23:42.032Z,6.10
2023-02-27T18:26:27.224Z,7.15
2023-02-27T18:28:57.270Z,7.20
2023-02-27T18:31:27.020Z,4.68
2023-02-27T18:33:54.245Z,9.18
2023-02-27T18:36:20.987Z,7.93
2023-02-27T18:38:47.859Z,9.90
2023-02-27T18:41:14.806Z,9.63
2023-02-27T18:43:42.441Z,6.03
2023-02-27T18:46:11.238Z,6.03
2023-02-27T18:50:17.147Z,6.43
2023-02-27T18:52:46.307Z,6.43
2023-02-27T18:55:33.612Z,7.80
2023-02-27T18:58:26.330Z,7.57
2023-02-27T19:04:43.739Z,9.23
2023-02-27T19:07:16.269Z,10.02
2023-02-27T19:09:46.343Z,12.02
2023-02-27T19:12:15.525Z,9.05
2023-02-27T19:20:45.614Z,13.05
2023-02-27T19:23:12.230Z,10.95
2023-02-27T19:25:38.866Z,15.05
2023-02-27T19:28:06.525Z,10.82
2023-02-27T19:37:36.693Z,10.00
2023-02-27T19:40:43.704Z,10.30
2023-02-27T19:46:40.237Z,7.30
2023-02-27T19:49:54.500Z,13.75
2023-02-27T19:52:54.612Z,9.82
2023-02-27T19:56:08.419Z,13.50
2023-02-27T19:59:24.024Z,13.65
2023-02-27T20:02:27.211Z,14.70
2023-02-27T20:08:00.742Z,18.15
2023-02-27T20:10:36.532Z,25.48
2023-02-27T20:13:22.407Z,13.60
2023-02-27T20:16:19.309Z,16.50
2023-02-27T20:19:02.189Z,14.23
2023-02-27T20:21:29.855Z,15.02
2023-02-27T20:24:12.586Z,14.77
2023-02-27T20:29:44.747Z,16.70
2023-02-27T20:32:47.917Z,19.25
2023-02-27T20:37:02.996Z,16.55
2023-02-27T20:41:05.208Z,12.20
2023-02-27T20:43:32.504Z,14.18
2023-02-27T20:46:08.173Z,16.35
2023-02-27T20:48:35.702Z,18.70
2023-02-27T20:51:13.463Z,20.58
2023-02-27T20:53:42.062Z,14.70
2023-02-27T20:56:09.599Z,14.60
2023-02-27T20:58:37.486Z,12.15
2023-02-27T21:01:11.951Z,7.15
2023-02-27T21:03:42.286Z,10.30
2023-02-27T21:06:11.739Z,7.35
2023-02-27T21:08:42.634Z,10.88
2023-02-27T21:11:19.939Z,8.20
2023-02-27T21:13:49.246Z,6.30
2023-02-27T21:16:19.936Z,5.28
2023-02-27T21:18:50.036Z,8.95
2023-02-27T21:21:19.261Z,11.55
2023-02-27T21:23:45.769Z,8.43
2023-02-27T21:26:27.755Z,5.75
2023-02-27T21:28:57.184Z,7.72
2023-02-27T21:31:25.251Z,5.95
2023-02-27T21:33:53.004Z,7.63
2023-02-27T21:36:26.682Z,7.10
2023-02-27T21:39:02.216Z,6.05
2023-02-27T21:41:41.898Z,7.22
2023-02-27T21:44:17.309Z,8.23
2023-02-27T21:46:45.289Z,7.35
2023-02-27T21:49:29.466Z,9.43
2023-02-27T21:51:58.658Z,6.88
2023-02-27T21:54:35.950Z,8.65
2023-02-27T21:57:05.486Z,7.57
2023-02-27T21:59:32.110Z,8.35
2023-02-27T22:01:59.099Z,6.60
2023-02-27T22:04:25.923Z,10.20
2023-02-27T22:06:53.339Z,8.48
2023-02-27T22:09:20.760Z,18.25
2023-02-27T22:11:48.710Z,9.38
2023-02-27T22:14:15.885Z,9.65
2023-02-27T22:16:42.967Z,11.15
2023-02-27T22:19:13.095Z,6.88
2023-02-27T22:21:40.319Z,8.05
2023-02-27T22:24:10.343Z,8.68
2023-02-27T22:26:37.748Z,9.20
2023-02-27T22:29:06.008Z,10.35
2023-02-27T22:31:35.564Z,9.10
2023-02-27T22:34:19.369Z,8.98
2023-02-27T22:39:35.537Z,10.43
2023-02-27T22:42:02.015Z,14.07
2023-02-27T22:44:33.668Z,6.85
2023-02-27T22:47:03.038Z,10.65
2023-02-27T22:49:32.120Z,6.10
2023-02-27T22:51:59.865Z,7.43
2023-02-27T22:54:37.368Z,6.43
2023-02-27T22:57:05.859Z,9.25
2023-02-27T22:59:32.385Z,9.40
2023-02-27T23:02:00.803Z,9.38
2023-02-27T23:04:28.899Z,12.07
2023-02-27T23:07:06.363Z,13.88
2023-02-27T23:09:35.976Z,10.18
2023-02-27T23:12:04.513Z,12.80
2023-02-27T23:14:31.642Z,13.13
2023-02-27T23:17:03.430Z,9.73
2023-02-27T23:19:30.109Z,8.25
2023-02-27T23:21:56.822Z,10.65
2023-02-27T23:24:23.615Z,10.93
2023-02-27T23:26:52.334Z,11.52
2023-02-27T23:29:19.223Z,11.35
2023-02-27T23:31:45.918Z,10.63
2023-02-27T23:34:12.664Z,10.00
2023-02-27T23:36:39.566Z,7.47
2023-02-27T23:39:07.535Z,8.90
2023-02-27T23:41:34.864Z,10.95
2023-02-27T23:44:05.117Z,9.77
2023-02-27T23:46:32.110Z,8.60
2023-02-27T23:49:02.220Z,8.75
2023-02-27T23:51:36.678Z,11.55
2023-02-27T23:54:16.778Z,14.07
2023-02-27T23:56:43.449Z,9.30
2023-02-27T23:59:20.938Z,6.82
